Time;durP1;ratioP1;P1;durP2;ratioP2;P2;SDS_P1;SDS_P2;PMS_P1;PMS_P2;Temp;Humidity;BMP_temperature;BMP_pressure;BME280_temperature;BME280_humidity;BME280_pressure;Samples;Min_cycle;Max_cycle;Signal;HPM_P1;HPM_P2
2023/01/30 00:01:22;;;;;;;44.73;27.47;;;;;;;;;;5061000;28;20189;-69
2023/01/30 00:03:48;;;;;;;47.30;28.43;;;;;;;;;;5061925;28;20237;-69
2023/01/30 00:06:14;;;;;;;41.20;28.80;;;;;;;;;;5062124;28;20662;-68
2023/01/30 00:08:40;;;;;;;45.13;29.87;;;;;;;;;;5080409;28;20178;-69
2023/01/30 00:11:07;;;;;;;42.47;27.73;;;;;;;;;;5079407;28;20230;-69
2023/01/30 00:13:33;;;;;;;46.63;29.37;;;;;;;;;;5077373;28;20569;-69
2023/01/30 00:15:59;;;;;;;39.30;25.13;;;;;;;;;;5077602;28;20213;-70
2023/01/30 00:18:25;;;;;;;46.87;29.33;;;;;;;;;;5076891;28;20470;-69
2023/01/30 00:20:58;;;;;;;46.83;29.87;;;;;;;;;;5058465;28;20189;-69
2023/01/30 00:23:25;;;;;;;46.97;28.57;;;;;;;;;;5058869;28;20224;-69
2023/01/30 00:25:51;;;;;;;46.73;27.90;;;;;;;;;;5058496;28;20184;-69
2023/01/30 00:28:17;;;;;;;45.20;27.63;;;;;;;;;;5076978;28;20619;-69
2023/01/30 00:30:43;;;;;;;45.83;30.17;;;;;;;;;;5076921;28;20264;-70
2023/01/30 00:33:09;;;;;;;44.80;30.53;;;;;;;;;;5076305;28;20284;-69
2023/01/30 00:35:35;;;;;;;48.57;28.67;;;;;;;;;;5076972;28;20646;-69
2023/01/30 00:38:01;;;;;;;46.80;29.27;;;;;;;;;;5058592;28;20170;-69
2023/01/30 00:40:28;;;;;;;44.33;28.30;;;;;;;;;;5058042;28;20178;-69
2023/01/30 00:48:25;;;;;;;42.90;27.70;;;;;;;;;;5076759;28;20177;-70
2023/01/30 00:50:51;;;;;;;43.80;28.20;;;;;;;;;;5076398;28;20182;-70
2023/01/30 00:53:17;;;;;;;38.50;28.17;;;;;;;;;;5075863;28;20687;-70
2023/01/30 00:55:44;;;;;;;39.80;28.73;;;;;;;;;;5075983;28;20258;-70
2023/01/30 00:58:10;;;;;;;46.37;29.13;;;;;;;;;;5057945;28;20298;-70
2023/01/30 01:00:36;;;;;;;37.33;22.80;;;;;;;;;;5057943;28;20749;-70
2023/01/30 01:03:02;;;;;;;45.87;31.07;;;;;;;;;;5075893;28;20272;-72
2023/01/30 01:05:28;;;;;;;45.10;29.50;;;;;;;;;;5075576;28;20253;-70
2023/01/30 01:07:55;;;;;;;45.97;30.00;;;;;;;;;;5077001;28;20178;-69
2023/01/30 01:10:21;;;;;;;46.30;30.53;;;;;;;;;;5057825;28;20297;-71
2023/01/30 01:12:48;;;;;;;47.07;30.30;;;;;;;;;;5075509;28;20201;-70
2023/01/30 01:15:14;;;;;;;44.53;30.83;;;;;;;;;;5075560;28;20711;-70
2023/01/30 01:17:40;;;;;;;42.27;29.03;;;;;;;;;;5075785;28;20206;-70
2023/01/30 01:20:07;;;;;;;43.97;30.03;;;;;;;;;;5078542;28;20178;-69
2023/01/30 01:22:33;;;;;;;41.70;29.53;;;;;;;;;;5081382;28;20243;-70
2023/01/30 01:24:59;;;;;;;46.50;30.90;;;;;;;;;;5063409;28;20639;-70
2023/01/30 01:27:25;;;;;;;42.90;28.63;;;;;;;;;;5079573;28;20719;-70
2023/01/30 01:29:51;;;;;;;43.70;31.57;;;;;;;;;;5078083;28;20178;-70
2023/01/30 01:32:17;;;;;;;43.17;29.40;;;;;;;;;;5057781;28;20659;-70
2023/01/30 01:34:43;;;;;;;47.53;29.70;;;;;;;;;;5057306;28;20675;-70
2023/01/30 01:37:09;;;;;;;46.53;29.53;;;;;;;;;;5057069;28;20675;-69
2023/01/30 01:42:19;;;;;;;48.57;31.57;;;;;;;;;;5075563;28;20185;-70
2023/01/30 01:44:58;;;;;;;44.23;31.40;;;;;;;;;;5074856;28;20197;-69
2023/01/30 01:47:24;;;;;;;47.80;30.43;;;;;;;;;;5057306;28;20186;-69
2023/01/30 01:49:50;;;;;;;42.70;29.83;;;;;;;;;;5057157;28;20198;-69
2023/01/30 01:52:16;;;;;;;41.67;32.13;;;;;;;;;;5075187;28;20173;-71
2023/01/30 01:54:51;;;;;;;38.03;28.27;;;;;;;;;;5057010;28;20213;-69
2023/01/30 01:57:20;;;;;;;41.27;29.07;;;;;;;;;;5075151;28;20192;-71
2023/01/30 01:59:48;;;;;;;43.37;29.23;;;;;;;;;;5056842;28;20178;-69
2023/01/30 02:02:15;;;;;;;42.37;29.30;;;;;;;;;;5075205;28;20178;-69
2023/01/30 02:05:02;;;;;;;37.50;27.77;;;;;;;;;;5074951;28;20743;-70
2023/01/30 02:07:37;;;;;;;40.00;27.77;;;;;;;;;;5056760;28;20181;-70
2023/01/30 02:10:04;;;;;;;42.07;28.43;;;;;;;;;;5056890;28;20199;-70
2023/01/30 02:12:30;;;;;;;38.50;27.27;;;;;;;;;;5057132;28;20656;-69
2023/01/30 02:14:57;;;;;;;30.43;23.07;;;;;;;;;;5056587;28;20213;-70
2023/01/30 02:17:23;;;;;;;39.40;29.07;;;;;;;;;;5074714;28;20178;-70
2023/01/30 02:19:52;;;;;;;35.37;23.20;;;;;;;;;;5074809;28;20172;-69
2023/01/30 02:22:26;;;;;;;36.47;25.37;;;;;;;;;;5075032;28;20177;-69
2023/01/30 02:25:28;;;;;;;34.50;27.37;;;;;;;;;;5075748;28;20564;-70
2023/01/30 02:28:04;;;;;;;41.13;27.47;;;;;;;;;;4993072;28;20666;-68
2023/01/30 02:30:48;;;;;;;35.53;26.80;;;;;;;;;;5064116;28;20272;-70
2023/01/30 02:33:33;;;;;;;35.47;26.70;;;;;;;;;;5056331;28;20220;-69
2023/01/30 02:36:20;;;;;;;39.07;27.00;;;;;;;;;;5074017;28;20544;-69
2023/01/30 02:38:45;;;;;;;34.93;26.20;;;;;;;;;;5055747;28;20174;-69
2023/01/30 02:41:17;;;;;;;40.63;26.93;;;;;;;;;;5056459;28;20534;-70
2023/01/30 02:43:52;;;;;;;37.57;26.33;;;;;;;;;;5073948;28;20614;-70
2023/01/30 02:46:21;;;;;;;41.93;27.07;;;;;;;;;;5074318;28;20177;-69
2023/01/30 02:48:56;;;;;;;36.77;26.60;;;;;;;;;;5074080;28;20563;-69
2023/01/30 02:51:28;;;;;;;36.23;26.97;;;;;;;;;;5074160;28;20199;-70
2023/01/30 02:53:55;;;;;;;35.27;25.57;;;;;;;;;;5055831;28;20248;-70
2023/01/30 02:56:21;;;;;;;39.07;29.07;;;;;;;;;;5074159;28;20181;-70
2023/01/30 02:58:54;;;;;;;42.47;27.27;;;;;;;;;;5074113;28;20170;-69
2023/01/30 03:01:30;;;;;;;37.87;26.03;;;;;;;;;;5073890;28;20170;-68
2023/01/30 03:04:17;;;;;;;38.57;27.37;;;;;;;;;;5073918;28;20689;-69
2023/01/30 03:06:43;;;;;;;39.10;27.20;;;;;;;;;;5073888;28;20639;-70
2023/01/30 03:09:21;;;;;;;40.17;26.70;;;;;;;;;;5073810;28;20185;-70
2023/01/30 03:12:06;;;;;;;38.77;25.53;;;;;;;;;;5073726;28;20541;-70
2023/01/30 03:14:35;;;;;;;41.60;26.07;;;;;;;;;;5073423;28;20212;-70
2023/01/30 03:17:04;;;;;;;38.60;24.20;;;;;;;;;;5074100;28;20178;-70
2023/01/30 03:19:30;;;;;;;40.27;27.23;;;;;;;;;;5059460;28;20259;-70
2023/01/30 03:21:56;;;;;;;38.23;26.87;;;;;;;;;;5059456;28;20174;-69
2023/01/30 03:24:22;;;;;;;38.77;28.17;;;;;;;;;;5077442;28;20228;-70
2023/01/30 03:26:49;;;;;;;34.00;26.97;;;;;;;;;;5059458;28;20182;-70
2023/01/30 03:29:15;;;;;;;40.93;26.97;;;;;;;;;;5077953;28;20265;-69
2023/01/30 03:31:41;;;;;;;39.97;26.73;;;;;;;;;;5059964;28;20633;-70
2023/01/30 03:34:07;;;;;;;39.43;30.10;;;;;;;;;;5059580;28;20213;-70
2023/01/30 03:36:33;;;;;;;40.03;25.27;;;;;;;;;;5059562;28;20182;-70
2023/01/30 03:38:59;;;;;;;41.87;28.53;;;;;;;;;;5077771;28;20170;-69
2023/01/30 03:41:25;;;;;;;39.00;22.93;;;;;;;;;;5078221;28;20170;-71
2023/01/30 03:43:51;;;;;;;44.53;28.67;;;;;;;;;;5061515;28;20347;-70
2023/01/30 03:46:17;;;;;;;39.67;27.60;;;;;;;;;;5078742;28;20177;-70
2023/01/30 03:48:43;;;;;;;47.90;27.83;;;;;;;;;;5077873;28;20177;-70
2023/01/30 03:51:08;;;;;;;43.90;27.37;;;;;;;;;;5077107;28;20205;-70
2023/01/30 03:53:34;;;;;;;43.63;28.57;;;;;;;;;;5077118;28;20678;-69
2023/01/30 03:56:00;;;;;;;45.00;29.57;;;;;;;;;;5059175;28;20644;-70
2023/01/30 03:58:26;;;;;;;37.37;25.23;;;;;;;;;;5076661;28;20174;-70
2023/01/30 04:00:55;;;;;;;38.93;29.03;;;;;;;;;;5076906;28;20206;-71
2023/01/30 04:03:21;;;;;;;39.67;28.10;;;;;;;;;;5058535;28;20687;-71
2023/01/30 04:05:47;;;;;;;48.17;28.80;;;;;;;;;;5077457;28;20186;-69
2023/01/30 04:08:12;;;;;;;44.00;26.80;;;;;;;;;;5077344;28;20185;-70
2023/01/30 04:10:38;;;;;;;41.80;28.27;;;;;;;;;;5077505;28;20178;-70
2023/01/30 04:13:05;;;;;;;41.63;28.57;;;;;;;;;;5058730;28;20671;-70
2023/01/30 04:15:31;;;;;;;41.93;29.47;;;;;;;;;;5076654;28;20185;-70
2023/01/30 04:17:57;;;;;;;46.10;31.93;;;;;;;;;;5076846;28;20174;-70
2023/01/30 04:20:23;;;;;;;40.80;28.33;;;;;;;;;;5076674;28;20178;-70
2023/01/30 04:22:49;;;;;;;35.93;26.33;;;;;;;;;;5058442;28;20197;-69
2023/01/30 04:25:15;;;;;;;39.07;23.97;;;;;;;;;;5076429;28;20303;-69
2023/01/30 04:27:41;;;;;;;45.13;29.97;;;;;;;;;;5076398;28;20207;-70
2023/01/30 04:30:07;;;;;;;46.17;29.33;;;;;;;;;;5075300;28;20241;-70
2023/01/30 04:32:33;;;;;;;47.40;28.13;;;;;;;;;;5058178;28;20547;-69
2023/01/30 04:34:59;;;;;;;39.90;25.67;;;;;;;;;;5058435;28;20212;-70
2023/01/30 04:37:25;;;;;;;48.93;30.03;;;;;;;;;;5062174;28;20184;-69
2023/01/30 04:39:51;;;;;;;41.43;28.17;;;;;;;;;;5060528;28;20620;-71
2023/01/30 04:42:17;;;;;;;47.20;30.30;;;;;;;;;;5061373;28;20556;-69
2023/01/30 04:44:43;;;;;;;45.53;29.03;;;;;;;;;;5077633;28;20598;-70
2023/01/30 04:47:09;;;;;;;44.30;30.67;;;;;;;;;;5077909;28;20536;-70
2023/01/30 04:49:35;;;;;;;49.30;32.10;;;;;;;;;;5076133;28;20670;-69
2023/01/30 04:52:01;;;;;;;48.23;30.10;;;;;;;;;;5075936;28;20186;-70
2023/01/30 04:54:27;;;;;;;43.37;27.40;;;;;;;;;;5058194;28;20587;-70
2023/01/30 04:56:53;;;;;;;48.77;31.73;;;;;;;;;;5076165;28;20215;-69
2023/01/30 04:59:19;;;;;;;46.57;31.63;;;;;;;;;;5076308;28;20181;-69
2023/01/30 05:01:45;;;;;;;47.60;28.43;;;;;;;;;;5058201;28;20182;-68
2023/01/30 05:04:11;;;;;;;44.93;29.43;;;;;;;;;;5075756;28;20205;-70
2023/01/30 05:06:37;;;;;;;43.13;31.23;;;;;;;;;;5075473;28;20198;-70
2023/01/30 05:09:04;;;;;;;48.40;30.13;;;;;;;;;;5075355;28;20178;-71
2023/01/30 05:11:31;;;;;;;44.33;28.63;;;;;;;;;;5057896;28;20173;-69
2023/01/30 05:13:57;;;;;;;44.97;29.93;;;;;;;;;;5075250;28;20238;-68
2023/01/30 05:16:23;;;;;;;46.70;31.10;;;;;;;;;;5057375;28;20182;-69
2023/01/30 05:18:49;;;;;;;43.60;30.73;;;;;;;;;;5057020;28;20658;-69
2023/01/30 05:21:17;;;;;;;46.57;32.07;;;;;;;;;;5075158;28;20197;-69
2023/01/30 05:23:44;;;;;;;44.63;29.80;;;;;;;;;;5075410;28;20194;-69
2023/01/30 05:26:10;;;;;;;42.17;32.50;;;;;;;;;;5075605;28;20688;-69
2023/01/30 05:28:36;;;;;;;49.70;31.37;;;;;;;;;;5081205;28;20178;-69
2023/01/30 05:31:06;;;;;;;48.93;31.53;;;;;;;;;;5074607;28;20182;-69
2023/01/30 05:33:32;;;;;;;47.37;31.13;;;;;;;;;;5056577;28;20249;-69
2023/01/30 05:35:58;;;;;;;50.83;32.00;;;;;;;;;;5074538;28;20178;-68
2023/01/30 05:38:25;;;;;;;44.50;32.27;;;;;;;;;;5056626;28;20177;-69
2023/01/30 05:40:59;;;;;;;42.10;30.37;;;;;;;;;;5056205;28;20552;-69
2023/01/30 05:43:24;;;;;;;50.37;33.20;;;;;;;;;;5074710;28;20288;-69
2023/01/30 05:45:54;;;;;;;43.83;32.67;;;;;;;;;;5074933;28;20220;-67
2023/01/30 05:48:21;;;;;;;45.00;32.27;;;;;;;;;;5056526;28;20186;-69
2023/01/30 05:50:49;;;;;;;48.40;31.23;;;;;;;;;;5056353;28;20184;-70
2023/01/30 05:53:15;;;;;;;45.90;29.63;;;;;;;;;;5073895;28;20292;-69
2023/01/30 05:55:42;;;;;;;45.70;30.53;;;;;;;;;;5055928;28;20196;-69
2023/01/30 05:58:08;;;;;;;41.93;28.23;;;;;;;;;;5074338;28;20181;-69
2023/01/30 06:00:34;;;;;;;44.53;30.33;;;;;;;;;;5074161;28;20173;-70
2023/01/30 06:03:00;;;;;;;48.30;32.87;;;;;;;;;;5074357;28;20668;-69
2023/01/30 06:05:26;;;;;;;47.47;30.87;;;;;;;;;;5073873;28;20643;-69
2023/01/30 06:07:52;;;;;;;52.00;37.80;;;;;;;;;;5076355;28;20170;-70
2023/01/30 06:10:18;;;;;;;44.70;34.47;;;;;;;;;;5079231;28;20253;-69
2023/01/30 06:12:44;;;;;;;48.00;30.33;;;;;;;;;;5059538;28;20177;-68
2023/01/30 06:15:10;;;;;;;47.33;31.43;;;;;;;;;;5056525;28;20205;-70
2023/01/30 06:17:36;;;;;;;49.17;32.93;;;;;;;;;;5056438;28;20177;-70
2023/01/30 06:20:02;;;;;;;47.53;33.53;;;;;;;;;;5073830;28;20173;-71
2023/01/30 06:22:28;;;;;;;46.47;34.60;;;;;;;;;;5073398;28;20695;-68
2023/01/30 06:24:54;;;;;;;55.67;38.23;;;;;;;;;;5055664;28;20292;-70
2023/01/30 06:27:20;;;;;;;49.90;36.03;;;;;;;;;;5073757;28;20263;-70
2023/01/30 06:29:46;;;;;;;59.87;42.37;;;;;;;;;;5073519;28;20231;-70
2023/01/30 06:32:12;;;;;;;55.17;40.57;;;;;;;;;;5073511;28;20169;-70
2023/01/30 06:34:38;;;;;;;45.10;31.63;;;;;;;;;;5073345;28;20213;-71
2023/01/30 06:37:04;;;;;;;46.87;34.10;;;;;;;;;;5055480;28;20547;-70
2023/01/30 06:39:30;;;;;;;40.10;29.63;;;;;;;;;;5073434;28;20201;-70
2023/01/30 06:41:56;;;;;;;41.37;30.00;;;;;;;;;;5073779;28;20223;-70
2023/01/30 06:44:22;;;;;;;48.03;30.70;;;;;;;;;;5055353;28;20263;-70
2023/01/30 06:46:48;;;;;;;40.83;28.90;;;;;;;;;;5055276;28;20659;-69
2023/01/30 06:49:14;;;;;;;41.10;29.30;;;;;;;;;;5073459;28;20189;-70
2023/01/30 06:51:40;;;;;;;43.00;28.90;;;;;;;;;;5072932;28;20177;-70
2023/01/30 06:54:06;;;;;;;42.90;28.23;;;;;;;;;;5072900;28;20304;-70
2023/01/30 06:56:32;;;;;;;35.03;28.23;;;;;;;;;;5055130;28;20278;-70
2023/01/30 06:58:58;;;;;;;34.87;25.17;;;;;;;;;;5073283;28;20201;-69
2023/01/30 07:01:24;;;;;;;40.60;26.17;;;;;;;;;;5073393;28;20174;-70
2023/01/30 07:03:50;;;;;;;30.20;24.80;;;;;;;;;;5073104;28;20197;-70
2023/01/30 07:06:16;;;;;;;36.40;24.83;;;;;;;;;;5055260;28;20678;-70
2023/01/30 07:08:43;;;;;;;35.40;24.37;;;;;;;;;;5072844;28;20181;-70
2023/01/30 07:11:09;;;;;;;33.77;24.40;;;;;;;;;;5054890;28;20182;-70
2023/01/30 07:13:35;;;;;;;34.83;24.43;;;;;;;;;;5073015;28;20210;-70
2023/01/30 07:16:01;;;;;;;33.97;22.50;;;;;;;;;;5055601;28;20235;-69
2023/01/30 07:18:27;;;;;;;29.97;20.73;;;;;;;;;;5073495;28;20257;-70
2023/01/30 07:20:53;;;;;;;33.77;20.90;;;;;;;;;;5055320;28;20173;-70
2023/01/30 07:23:19;;;;;;;29.90;21.33;;;;;;;;;;5073322;28;20274;-70
2023/01/30 07:25:45;;;;;;;29.53;20.80;;;;;;;;;;5055383;28;20177;-69
2023/01/30 07:28:11;;;;;;;31.33;21.40;;;;;;;;;;5073453;28;20186;-70
2023/01/30 07:30:37;;;;;;;30.70;19.77;;;;;;;;;;5072860;28;20174;-70
2023/01/30 07:33:04;;;;;;;26.50;18.80;;;;;;;;;;5054858;28;20205;-70
2023/01/30 07:35:31;;;;;;;22.20;14.63;;;;;;;;;;5054919;28;20167;-70
2023/01/30 07:37:57;;;;;;;33.87;18.83;;;;;;;;;;5054768;28;20660;-70
2023/01/30 07:40:23;;;;;;;35.37;20.10;;;;;;;;;;5097020;22;20232;-72
2023/01/30 07:43:10;;;;;;;34.13;22.13;;;;;;;;;;5093692;28;20173;-71
2023/01/30 07:45:36;;;;;;;33.03;22.90;;;;;;;;;;5075840;28;20177;-70
2023/01/30 07:48:02;;;;;;;32.43;19.30;;;;;;;;;;5094288;28;20187;-72
2023/01/30 07:50:28;;;;;;;33.40;17.67;;;;;;;;;;5094273;28;20292;-72
2023/01/30 07:52:54;;;;;;;31.90;18.70;;;;;;;;;;5092818;28;20655;-71
2023/01/30 07:55:20;;;;;;;22.80;15.33;;;;;;;;;;5094228;28;20196;-73
2023/01/30 07:57:46;;;;;;;25.93;19.80;;;;;;;;;;5094153;28;20169;-72
2023/01/30 08:00:12;;;;;;;26.47;14.70;;;;;;;;;;5092897;28;20193;-72
2023/01/30 08:02:38;;;;;;;19.43;11.17;;;;;;;;;;5094250;28;20169;-72
2023/01/30 08:05:04;;;;;;;23.47;11.17;;;;;;;;;;5098250;28;20238;-71
2023/01/30 08:07:30;;;;;;;21.17;10.87;;;;;;;;;;5095998;28;20788;-72
2023/01/30 08:09:56;;;;;;;19.10;9.47;;;;;;;;;;5096947;28;20236;-68
2023/01/30 08:12:22;;;;;;;18.37;9.03;;;;;;;;;;5097647;28;20181;-68
2023/01/30 08:14:48;;;;;;;14.60;6.67;;;;;;;;;;5097942;28;20193;-68
2023/01/30 08:17:14;;;;;;;13.03;7.50;;;;;;;;;;5096107;28;20177;-69
2023/01/30 08:19:40;;;;;;;25.40;7.87;;;;;;;;;;5096082;28;20197;-69
2023/01/30 08:22:06;;;;;;;18.93;6.63;;;;;;;;;;5097366;28;20260;-67
2023/01/30 08:24:32;;;;;;;24.73;6.60;;;;;;;;;;5097836;28;20226;-68
2023/01/30 08:26:59;;;;;;;15.83;5.47;;;;;;;;;;5096550;28;20173;-68
2023/01/30 08:29:25;;;;;;;16.20;5.93;;;;;;;;;;5097357;28;20204;-68
2023/01/30 08:31:51;;;;;;;13.70;4.10;;;;;;;;;;5096961;28;20623;-69
2023/01/30 08:34:17;;;;;;;14.27;5.13;;;;;;;;;;5098460;28;20228;-68
2023/01/30 08:36:45;;;;;;;18.57;5.50;;;;;;;;;;5104203;28;20173;-69
2023/01/30 08:39:11;;;;;;;15.60;4.73;;;;;;;;;;5108093;28;20225;-69
2023/01/30 08:41:37;;;;;;;13.10;5.13;;;;;;;;;;5105622;28;20238;-69
2023/01/30 08:44:03;;;;;;;16.93;4.83;;;;;;;;;;5099845;28;20181;-68
2023/01/30 08:46:29;;;;;;;13.47;4.10;;;;;;;;;;5097476;28;20265;-69
2023/01/30 08:48:55;;;;;;;14.03;5.03;;;;;;;;;;5098419;28;20212;-69
2023/01/30 08:51:21;;;;;;;14.33;5.20;;;;;;;;;;5097123;28;20223;-67
2023/01/30 08:53:47;;;;;;;14.37;4.20;;;;;;;;;;5097455;28;20229;-69
2023/01/30 08:56:13;;;;;;;19.17;4.97;;;;;;;;;;5095725;28;20173;-68
2023/01/30 08:58:42;;;;;;;14.43;4.67;;;;;;;;;;5097014;28;20239;-68
2023/01/30 09:01:08;;;;;;;20.93;6.80;;;;;;;;;;5096820;28;20169;-68
2023/01/30 09:03:34;;;;;;;16.03;5.43;;;;;;;;;;5095658;28;20188;-68
2023/01/30 09:06:00;;;;;;;18.30;5.00;;;;;;;;;;5095706;28;20577;-66
2023/01/30 09:08:26;;;;;;;17.57;5.20;;;;;;;;;;5096744;28;20242;-70
2023/01/30 09:10:52;;;;;;;13.27;4.40;;;;;;;;;;5096644;28;20676;-68
2023/01/30 09:13:18;;;;;;;17.33;5.20;;;;;;;;;;5095286;28;20181;-69
2023/01/30 09:15:44;;;;;;;15.87;4.47;;;;;;;;;;5094462;28;20230;-68
2023/01/30 09:18:10;;;;;;;23.20;4.80;;;;;;;;;;5094894;28;20173;-68
2023/01/30 09:20:37;;;;;;;11.13;3.77;;;;;;;;;;5096004;28;20223;-68
2023/01/30 09:23:03;;;;;;;19.67;5.50;;;;;;;;;;5096306;28;20177;-68
2023/01/30 09:25:29;;;;;;;18.47;4.73;;;;;;;;;;5095062;28;20268;-69
2023/01/30 09:27:55;;;;;;;18.63;5.07;;;;;;;;;;5096361;28;20169;-68
2023/01/30 09:30:21;;;;;;;20.13;4.33;;;;;;;;;;5096439;28;20200;-68
2023/01/30 09:32:47;;;;;;;11.77;4.43;;;;;;;;;;5095149;28;20181;-66
2023/01/30 09:35:14;;;;;;;23.23;4.67;;;;;;;;;;5094600;28;20201;-69
2023/01/30 09:37:46;;;;;;;12.67;3.30;;;;;;;;;;5094878;28;20173;-69
2023/01/30 09:40:14;;;;;;;14.03;4.30;;;;;;;;;;5095167;28;20213;-68
2023/01/30 09:42:59;;;;;;;15.03;4.17;;;;;;;;;;5093706;28;20184;-68
2023/01/30 09:45:34;;;;;;;14.67;4.37;;;;;;;;;;5095327;28;20180;-69
2023/01/30 09:48:15;;;;;;;16.67;4.93;;;;;;;;;;5095025;28;20235;-69
2023/01/30 09:50:48;;;;;;;15.33;4.40;;;;;;;;;;5094824;28;20200;-69
2023/01/30 09:53:25;;;;;;;17.03;4.77;;;;;;;;;;5093049;28;20623;-69
2023/01/30 09:55:51;;;;;;;21.00;4.97;;;;;;;;;;5094797;28;20193;-67
2023/01/30 09:58:19;;;;;;;17.53;4.07;;;;;;;;;;5094517;28;20262;-70
2023/01/30 10:00:48;;;;;;;23.47;4.20;;;;;;;;;;5094049;28;20231;-70
2023/01/30 10:03:19;;;;;;;19.53;4.83;;;;;;;;;;5094233;28;20200;-69
2023/01/30 10:05:49;;;;;;;19.13;5.07;;;;;;;;;;5095472;28;20226;-68
2023/01/30 10:08:30;;;;;;;16.50;4.53;;;;;;;;;;5094925;28;20233;-69
2023/01/30 10:11:03;;;;;;;18.20;4.33;;;;;;;;;;5093402;28;20184;-68
2023/01/30 10:13:47;;;;;;;17.77;4.57;;;;;;;;;;5092777;28;20209;-68
2023/01/30 10:16:20;;;;;;;15.70;3.87;;;;;;;;;;5093015;28;20172;-69
2023/01/30 10:19:01;;;;;;;19.43;4.43;;;;;;;;;;5095073;28;20531;-69
2023/01/30 10:21:41;;;;;;;16.00;4.47;;;;;;;;;;5093110;28;20183;-68
2023/01/30 10:24:36;;;;;;;16.97;4.00;;;;;;;;;;5092519;28;20173;-70
2023/01/30 10:27:03;;;;;;;15.93;4.10;;;;;;;;;;4987822;28;20247;-68
2023/01/30 10:29:35;;;;;;;18.83;4.40;;;;;;;;;;5094496;28;20666;-69
2023/01/30 10:32:04;;;;;;;19.73;4.67;;;;;;;;;;5093299;28;20241;-69
2023/01/30 10:34:36;;;;;;;21.53;4.20;;;;;;;;;;5093382;28;20618;-70
2023/01/30 10:37:08;;;;;;;17.20;4.57;;;;;;;;;;5093228;28;20382;-68
2023/01/30 10:39:38;;;;;;;16.73;4.30;;;;;;;;;;5057301;28;1055759;-70
2023/01/30 10:42:21;;;;;;;11.10;3.50;;;;;;;;;;5093727;28;20556;-68
2023/01/30 10:44:47;;;;;;;9.40;3.07;;;;;;;;;;5093650;28;20218;-69
2023/01/30 10:47:25;;;;;;;18.57;4.43;;;;;;;;;;5093845;28;20188;-69
2023/01/30 10:49:53;;;;;;;15.60;3.93;;;;;;;;;;5093545;28;20193;-69
2023/01/30 10:52:48;;;;;;;16.17;3.67;;;;;;;;;;5093975;28;20180;-70
2023/01/30 10:55:14;;;;;;;13.20;3.63;;;;;;;;;;5067799;28;20231;-69
2023/01/30 10:57:53;;;;;;;17.67;4.20;;;;;;;;;;5094588;28;20173;-68
2023/01/30 11:00:23;;;;;;;9.20;2.90;;;;;;;;;;5093640;28;20207;-68
2023/01/30 11:03:09;;;;;;;17.90;4.40;;;;;;;;;;5094826;28;20172;-68
2023/01/30 11:05:41;;;;;;;16.63;4.23;;;;;;;;;;5094395;28;20193;-69
2023/01/30 11:08:18;;;;;;;15.87;5.27;;;;;;;;;;5094204;28;20633;-69
2023/01/30 11:10:44;;;;;;;18.23;4.67;;;;;;;;;;5094317;28;20278;-70
2023/01/30 11:13:16;;;;;;;15.17;4.47;;;;;;;;;;5093072;28;20552;-68
2023/01/30 11:15:44;;;;;;;14.80;3.70;;;;;;;;;;5095073;28;20161;-69
2023/01/30 11:18:11;;;;;;;17.73;4.33;;;;;;;;;;5092884;28;20173;-71
2023/01/30 11:20:41;;;;;;;16.27;3.73;;;;;;;;;;5093366;28;20205;-70
2023/01/30 11:23:08;;;;;;;23.17;5.10;;;;;;;;;;5092876;28;20649;-70
2023/01/30 11:25:46;;;;;;;15.60;3.80;;;;;;;;;;5094477;28;20173;-69
2023/01/30 11:28:16;;;;;;;10.50;3.40;;;;;;;;;;5092738;28;20649;-69
2023/01/30 11:30:42;;;;;;;16.20;4.43;;;;;;;;;;5093162;28;20200;-70
2023/01/30 11:33:12;;;;;;;15.50;5.07;;;;;;;;;;5094409;28;20546;-70
2023/01/30 11:35:53;;;;;;;20.50;4.73;;;;;;;;;;5094639;28;20191;-69
2023/01/30 11:38:26;;;;;;;15.87;4.40;;;;;;;;;;5095067;28;20159;-69
2023/01/30 11:41:02;;;;;;;15.73;4.60;;;;;;;;;;5097469;28;20205;-70
2023/01/30 11:43:29;;;;;;;20.77;4.70;;;;;;;;;;5096136;28;20181;-71
2023/01/30 11:45:55;;;;;;;16.87;4.93;;;;;;;;;;5097467;28;20637;-68
2023/01/30 11:48:24;;;;;;;17.47;5.60;;;;;;;;;;5096051;28;20181;-69
2023/01/30 11:50:56;;;;;;;14.30;3.70;;;;;;;;;;5097256;28;20200;-69
2023/01/30 11:53:22;;;;;;;17.93;4.30;;;;;;;;;;5096192;28;20173;-70
2023/01/30 11:55:48;;;;;;;15.60;4.07;;;;;;;;;;5095929;28;20276;-69
2023/01/30 11:58:14;;;;;;;17.87;3.97;;;;;;;;;;5095659;28;20181;-70
2023/01/30 12:00:41;;;;;;;11.27;3.93;;;;;;;;;;5096297;28;20188;-70
2023/01/30 12:03:11;;;;;;;12.90;3.33;;;;;;;;;;5097686;28;20568;-70
2023/01/30 12:05:41;;;;;;;17.97;4.50;;;;;;;;;;5095636;28;20181;-70
2023/01/30 12:08:33;;;;;;;16.40;3.73;;;;;;;;;;5096641;28;20180;-70
2023/01/30 12:11:01;;;;;;;13.50;3.67;;;;;;;;;;5092069;28;20185;-70
2023/01/30 12:13:33;;;;;;;10.90;3.20;;;;;;;;;;5095025;28;20263;-69
2023/01/30 12:16:13;;;;;;;19.13;4.37;;;;;;;;;;5096453;28;20181;-67
2023/01/30 12:18:44;;;;;;;11.93;3.73;;;;;;;;;;5095424;28;20607;-69
2023/01/30 12:21:29;;;;;;;14.87;3.73;;;;;;;;;;5097407;28;20193;-69
2023/01/30 12:24:13;;;;;;;16.07;3.63;;;;;;;;;;5097016;28;20181;-69
2023/01/30 12:26:45;;;;;;;12.50;3.67;;;;;;;;;;5096286;28;20176;-70
2023/01/30 12:29:20;;;;;;;18.73;4.60;;;;;;;;;;5094660;28;20205;-69
2023/01/30 12:31:49;;;;;;;15.33;4.43;;;;;;;;;;5099532;28;20169;-70
2023/01/30 12:34:15;;;;;;;12.03;4.43;;;;;;;;;;5096493;28;20244;-70
2023/01/30 12:36:47;;;;;;;16.42;5.18;;;;;;;;;;5094581;28;20381;-69
2023/01/30 12:39:22;;;;;;;18.07;4.63;;;;;;;;;;5094612;28;20244;-69
2023/01/30 12:41:53;;;;;;;14.60;3.83;;;;;;;;;;5097281;28;20214;-70
2023/01/30 12:44:28;;;;;;;18.00;4.43;;;;;;;;;;5094403;28;20169;-70
2023/01/30 12:47:19;;;;;;;14.67;4.23;;;;;;;;;;5095896;28;20545;-72
2023/01/30 12:49:54;;;;;;;19.87;4.80;;;;;;;;;;5094685;28;20674;-70
2023/01/30 12:52:20;;;;;;;15.37;3.50;;;;;;;;;;5095634;28;20229;-70
2023/01/30 12:54:57;;;;;;;16.27;3.50;;;;;;;;;;5095195;28;20204;-70
2023/01/30 12:57:39;;;;;;;27.53;4.57;;;;;;;;;;5095652;28;20161;-70
2023/01/30 13:00:24;;;;;;;14.50;4.07;;;;;;;;;;5095389;28;20769;-70
2023/01/30 13:02:56;;;;;;;21.43;4.67;;;;;;;;;;5093941;28;20165;-71
2023/01/30 13:05:32;;;;;;;18.93;4.40;;;;;;;;;;5093775;28;20181;-71
2023/01/30 13:08:17;;;;;;;19.43;4.57;;;;;;;;;;5093820;28;20190;-70
2023/01/30 13:10:43;;;;;;;20.20;5.33;;;;;;;;;;5093763;28;20674;-70
2023/01/30 13:13:14;;;;;;;18.33;4.40;;;;;;;;;;5094994;28;20185;-71
2023/01/30 13:15:52;;;;;;;21.27;4.93;;;;;;;;;;5094971;28;20162;-70
2023/01/30 13:18:23;;;;;;;12.00;4.43;;;;;;;;;;5094857;28;20664;-71
2023/01/30 13:20:52;;;;;;;29.70;5.03;;;;;;;;;;5095309;28;20197;-70
2023/01/30 13:23:23;;;;;;;16.53;4.23;;;;;;;;;;5095218;28;20173;-71
2023/01/30 13:26:10;;;;;;;15.30;5.00;;;;;;;;;;5093396;28;20189;-70
2023/01/30 13:28:43;;;;;;;13.67;3.60;;;;;;;;;;5094671;28;20255;-70
2023/01/30 13:31:11;;;;;;;16.27;4.03;;;;;;;;;;5094586;28;20252;-71
2023/01/30 13:33:40;;;;;;;15.33;4.33;;;;;;;;;;5094492;28;20197;-70
2023/01/30 13:36:10;;;;;;;16.33;4.00;;;;;;;;;;5093400;28;20180;-69
2023/01/30 13:38:40;;;;;;;20.70;4.50;;;;;;;;;;5094577;28;20208;-70
2023/01/30 13:41:09;;;;;;;15.90;4.60;;;;;;;;;;5094925;28;20170;-70
2023/01/30 13:43:36;;;;;;;13.30;3.60;;;;;;;;;;5093277;28;20276;-70
2023/01/30 13:48:42;;;;;;;19.37;4.70;;;;;;;;;;5092364;28;20219;-69
2023/01/30 13:51:14;;;;;;;18.83;4.23;;;;;;;;;;5076070;28;20169;-69
2023/01/30 13:53:51;;;;;;;21.80;4.93;;;;;;;;;;5076048;28;20259;-69
2023/01/30 13:56:32;;;;;;;13.57;4.60;;;;;;;;;;5094429;28;20153;-68
2023/01/30 13:59:08;;;;;;;16.17;4.30;;;;;;;;;;5092881;28;20219;-69
2023/01/30 14:01:53;;;;;;;26.13;5.77;;;;;;;;;;5094279;28;20149;-68
2023/01/30 14:04:41;;;;;;;23.80;4.93;;;;;;;;;;5094332;28;20180;-68
2023/01/30 14:07:21;;;;;;;17.80;5.03;;;;;;;;;;5094212;28;20207;-69
2023/01/30 14:09:50;;;;;;;16.80;4.30;;;;;;;;;;5092758;28;20165;-69
2023/01/30 14:12:18;;;;;;;24.47;4.60;;;;;;;;;;5094021;28;20192;-69
2023/01/30 14:14:57;;;;;;;17.03;4.30;;;;;;;;;;5094083;28;20297;-69
2023/01/30 14:17:23;;;;;;;20.10;4.70;;;;;;;;;;5093925;28;20242;-69
2023/01/30 14:20:04;;;;;;;19.53;5.03;;;;;;;;;;5092468;28;20177;-68
2023/01/30 14:22:30;;;;;;;17.07;4.20;;;;;;;;;;5092468;28;20614;-69
2023/01/30 14:25:15;;;;;;;16.43;4.77;;;;;;;;;;5093929;28;20201;-69
2023/01/30 14:27:41;;;;;;;20.40;4.27;;;;;;;;;;5094020;28;20200;-69
2023/01/30 14:30:27;;;;;;;17.73;5.10;;;;;;;;;;5093827;28;20173;-69
2023/01/30 14:32:54;;;;;;;72.53;39.10;;;;;;;;;;5092189;28;20647;-69
2023/01/30 14:35:21;;;;;;;20.30;6.00;;;;;;;;;;5093806;28;20208;-69
2023/01/30 14:37:49;;;;;;;83.97;42.77;;;;;;;;;;5093401;28;20666;-70
2023/01/30 14:40:21;;;;;;;58.77;32.20;;;;;;;;;;5093319;28;20169;-69
2023/01/30 14:43:05;;;;;;;23.83;6.63;;;;;;;;;;5093708;28;20250;-69
2023/01/30 14:45:50;;;;;;;24.80;9.53;;;;;;;;;;5093320;28;20312;-69
2023/01/30 14:48:34;;;;;;;29.73;13.23;;;;;;;;;;5093152;28;20208;-69